Data for 09/08/2018

Time Sea-Level Adjusted Pressure Absolute Pressure Temperature Relative Humidity Dew Point   
(mb) (inHg) (mb) (inHg) (C) (F) (%) (C) (F)
00:05 1020 30.12 849 25.07 20 68.1 27 0.8 33.4
00:10 1020 30.12 849 25.07 20.3 68.5 28 1.2 34.1
00:15 1020 30.12 849 25.07 20.3 68.5 28 1.1 34
00:20 1020 30.12 849 25.07 20.2 68.4 31 2.7 36.9
00:25 1020 30.12 849 25.07 19.6 67.4 31 2.4 36.3
00:30 1020 30.12 849 25.07 18.9 66 32 2.1 35.9
00:35 1020 30.12 849 25.07 18.5 65.2 33 2.1 35.8
00:40 1020 30.12 849 25.07 18.2 64.7 34 2.1 35.8
00:45 1020 30.12 849 25.07 18 64.5 34 2 35.5
00:50 1019 30.09 849 25.07 18.1 64.5 33 1.7 35
00:55 1019 30.09 849 25.07 18.2 64.8 32 1.2 34.2
01:00 1019 30.09 848 25.04 18.5 65.3 32 1.6 34.9
01:05 1019 30.09 848 25.04 18.4 65 33 1.8 35.3
01:10 1019 30.09 848 25.04 18.1 64.6 34 2 35.7
01:15 1019 30.09 848 25.04 17.7 63.9 34 1.7 35.1
01:20 1019 30.09 848 25.04 17.7 63.8 34 1.9 35.4
01:25 1019 30.09 848 25.04 17.8 64 33 1.2 34.2
01:30 1019 30.09 848 25.04 17.7 63.9 33 1.4 34.6
01:35 1019 30.09 848 25.04 17.7 63.8 33 1.2 34.2
01:40 1019 30.09 848 25.04 17.8 64 33 1.4 34.5
01:45 1019 30.09 848 25.04 17.8 64 31 0.8 33.4
01:50 1019 30.09 848 25.04 18 64.3 32 1.2 34.1
01:55 1019 30.09 848 25.04 18 64.3 32 1 33.7
02:00 1019 30.09 848 25.04 17.9 64.1 34 1.8 35.3
02:05 1019 30.09 848 25.04 17.1 62.9 36 2.1 35.8
02:10 1019 30.09 848 25.04 16.9 62.4 34 1 33.8
02:15 1018 30.06 848 25.04 17.4 63.3 34 1.5 34.6
02:20 1018 30.06 847 25.01 17.2 62.9 34 1.4 34.4
02:25 1018 30.06 847 25.01 17.1 62.9 34 1.3 34.3
02:30 1018 30.06 847 25.01 17.2 63 32 0.5 33
02:35 1018 30.06 847 25.01 17.8 64 32 1 33.7
02:40 1018 30.06 847 25.01 17.8 64.1 31 0.7 33.3
02:45 1018 30.06 847 25.01 18.2 64.7 31 1 33.7
02:50 1018 30.06 847 25.01 18.3 64.9 31 1 33.8
02:55 1018 30.06 847 25.01 18.2 64.8 31 0.8 33.4
03:00 1018 30.06 847 25.01 18.3 65 31 1 33.7
03:05 1018 30.06 847 25.01 18.3 65 31 1.2 34.1
03:10 1018 30.06 847 25.01 18.1 64.6 31 0.8 33.4
03:15 1018 30.06 847 25.01 18.2 64.8 31 1 33.7
03:20 1018 30.06 847 25.01 18 64.5 32 1.1 33.9
03:25 1018 30.06 847 25.01 18.1 64.5 31 0.9 33.6
03:30 1018 30.06 847 25.01 18.2 64.8 30 0.7 33.3
03:35 1018 30.06 847 25.01 18.3 64.9 30 0.7 33.3
03:40 1018 30.06 847 25.01 18.2 64.7 31 1 33.8
03:45 1018 30.06 847 25.01 18 64.4 31 0.9 33.7
03:50 1018 30.06 847 25.01 17.9 64.2 33 1.5 34.8
03:55 1018 30.06 847 25.01 17.5 63.5 33 1.3 34.3
04:00 1018 30.06 847 25.01 17.8 64 33 1.5 34.6
04:05 1018 30.06 847 25.01 18.2 64.7 31 1.1 34
04:10 1018 30.06 847 25.01 18.6 65.4 30 1 33.7
04:15 1018 30.06 847 25.01 18.4 65.1 35 2.7 36.8
04:20 1018 30.06 847 25.01 17.5 63.5 36 2.5 36.4
04:25 1018 30.06 847 25.01 17 62.7 38 2.6 36.7
04:30 1018 30.06 847 25.01 16.5 61.6 40 3 37.3
04:35 1018 30.06 847 25.01 16.3 61.3 41 3.1 37.6
04:40 1018 30.06 847 25.01 16.2 61.1 40 2.7 36.9
04:45 1019 30.09 848 25.04 16.2 61.1 41 3 37.5
04:50 1019 30.09 848 25.04 16.1 60.9 42 3.4 38.1
04:55 1019 30.09 848 25.04 15.9 60.5 43 3.5 38.3
05:00 1019 30.09 848 25.04 15.6 60.2 44 3.6 38.5
05:05 1019 30.09 848 25.04 15.6 60.2 44 3.4 38.2
05:10 1019 30.09 848 25.04 15.5 59.8 47 4.3 39.8
05:15 1019 30.09 849 25.07 14.9 58.9 50 4.7 40.4
05:20 1020 30.12 849 25.07 14.6 58.3 46 3.1 37.6
05:25 1020 30.12 849 25.07 15.1 59.1 45 3.3 37.9
05:30 1020 30.12 849 25.07 15.4 59.7 46 3.9 39
05:35 1020 30.12 849 25.07 15.5 59.9 41 2.4 36.4
05:40 1020 30.12 849 25.07 16.2 61.1 38 2 35.6
05:45 1020 30.12 849 25.07 16.6 62 41 3.5 38.4
05:50 1020 30.12 849 25.07 16.7 62.1 37 2.2 35.9
05:55 1020 30.12 849 25.07 16.7 62.1 37 2.1 35.8
06:00 1020 30.12 849 25.07 16.6 61.8 41 3.4 38.1
06:05 1020 30.12 849 25.07 15.9 60.6 44 3.8 38.9
06:10 1020 30.12 849 25.07 15.3 59.5 47 4.1 39.3
06:15 1020 30.12 849 25.07 14.9 58.8 47 3.8 38.8
06:20 1020 30.12 849 25.07 15.2 59.3 45 3.2 37.8
06:25 1020 30.12 849 25.07 15.4 59.7 44 3.3 37.9
06:30 1020 30.12 849 25.07 15.6 60.1 41 2.3 36.2
06:35 1020 30.12 849 25.07 16.1 61 40 2.6 36.7
06:40 1019 30.09 849 25.07 16.1 60.9 41 3 37.5
06:45 1019 30.09 849 25.07 15.9 60.7 40 2.4 36.4
06:50 1019 30.09 848 25.04 16.6 61.9 37 1.8 35.3
06:55 1019 30.09 848 25.04 17 62.6 38 2.9 37.1
07:00 1019 30.09 848 25.04 16.7 62 40 3 37.4
07:05 1019 30.09 848 25.04 16.1 61 41 3.1 37.6
07:10 1019 30.09 848 25.04 16 60.8 41 2.8 37
07:15 1018 30.06 848 25.04 16 60.8 40 2.5 36.6
07:20 1018 30.06 848 25.04 16.4 61.6 38 2.3 36.2
07:25 1018 30.06 848 25.04 16.7 62 38 2.5 36.5
07:30 1018 30.06 848 25.04 16.7 62.1 38 2.4 36.4
07:35 1018 30.06 848 25.04 16.8 62.2 38 2.4 36.3
07:40 1018 30.06 848 25.04 16.8 62.2 37 2.1 35.7
07:45 1018 30.06 848 25.04 16.9 62.5 38 2.6 36.7
07:50 1018 30.06 848 25.04 17 62.7 36 2 35.5
07:55 1018 30.06 847 25.01 17.3 63.2 32 0.8 33.4
08:00 1018 30.06 847 25.01 17.9 64.1 33 1.3 34.4
08:05 1018 30.06 847 25.01 18 64.5 31 0.9 33.7
08:10 1018 30.06 847 25.01 18.4 65.1 31 1.3 34.3
08:15 1018 30.06 847 25.01 18.3 65 32 1.5 34.7
08:20 1018 30.06 847 25.01 18.3 65 32 1.3 34.4
08:25 1018 30.06 847 25.01 18.7 65.6 31 1.5 34.7
08:30 1018 30.06 847 25.01 18.9 66.1 32 1.9 35.4
08:35 1018 30.06 847 25.01 19 66.3 31 1.6 34.9
08:40 1018 30.06 847 25.01 19.4 66.9 31 1.8 35.3
08:45 1018 30.06 847 25.01 19.6 67.3 32 2.5 36.4
08:50 1018 30.06 847 25.01 19.8 67.7 32 2.7 36.9
08:55 1018 30.06 847 25.01 20.2 68.3 32 2.9 37.3
09:00 1018 30.06 847 25.01 20.6 69.1 30 2.6 36.7
09:05 1018 30.06 847 25.01 21 69.8 32 3.8 38.8
09:10 1018 30.06 847 25.01 21.4 70.4 30 3.3 38
09:15 1018 30.06 847 25.01 21.6 70.9 36 6 42.8
09:20 1018 30.06 847 25.01 22.1 71.7 29 3.6 38.5
09:25 1018 30.06 847 25.01 22.6 72.6 31 4.8 40.7
09:30 1018 30.06 847 25.01 23.1 73.6 29 4.4 40
09:35 1018 30.06 847 25.01 22.9 73.3 30 4.9 40.7
09:40 1018 30.06 847 25.01 22.8 73.1 31 5.1 41.1
09:45 1018 30.06 847 25.01 23.3 73.9 27 3.6 38.4
09:50 1018 30.06 847 25.01 23.8 74.8 26 3.1 37.6
09:55 1018 30.06 847 25.01 24.3 75.7 27 4.3 39.8
10:00 1018 30.06 847 25.01 23.8 74.9 25 3 37.4
10:05 1018 30.06 847 25.01 23.7 74.7 26 3.2 37.8
10:10 1018 30.06 847 25.01 24.1 75.4 25 2.9 37.2
10:15 1018 30.06 847 25.01 24.3 75.7 23 1.8 35.2
10:20 1017 30.03 847 25.01 24.1 75.4 22 1.2 34.2
10:25 1017 30.03 847 25.01 24.5 76.1 21 1.1 34
10:30 1017 30.03 847 25.01 24.9 76.9 22 2 35.6
10:35 1017 30.03 847 25.01 25.2 77.4 22 1.9 35.5
10:40 1017 30.03 847 25.01 25.5 77.9 23 3.2 37.7
10:45 1017 30.03 847 25.01 25.9 78.7 21 2.1 35.8
10:50 1017 30.03 847 25.01 25.9 78.7 21 2.2 35.9
10:55 1017 30.03 847 25.01 26.2 79.2 21 2.1 35.8
11:00 1017 30.03 847 25.01 26.5 79.7 20 2.3 36.2
11:05 1017 30.03 847 25.01 26.4 79.6 18 0.5 33
11:10 1017 30.03 847 25.01 26.4 79.5 20 1.7 35
11:15 1017 30.03 846 24.98 26.5 79.8 17 0.1 32.1
11:20 1017 30.03 846 24.98 26.6 79.9 18 0.4 32.7
11:25 1017 30.03 846 24.98 26.7 80.1 17 0.2 32.3
11:30 1017 30.03 846 24.98 26.2 79.2 17 -0.3 31.5
11:35 1017 30.03 846 24.98 26.5 79.7 17 -0.3 31.5
11:40 1017 30.03 846 24.98 27 80.5 17 0.3 32.6
11:45 1017 30.03 846 24.98 27 80.6 17 0.3 32.5
11:50 1017 30.03 846 24.98 26.9 80.4 19 1.4 34.6
11:55 1017 30.03 846 24.98 27.1 80.8 19 1.9 35.5
12:00 1017 30.03 846 24.98 27.3 81.1 18 0.8 33.5
12:05 1017 30.03 846 24.98 27.4 81.2 19 2 35.7
12:10 1017 30.03 846 24.98 26.9 80.4 21 3.2 37.7
12:15 1017 30.03 846 24.98 27 80.6 19 2 35.7
12:20 1017 30.03 846 24.98 27.6 81.7 18 1.6 34.8
12:25 1017 30.03 846 24.98 27.1 80.8 19 1.5 34.7
12:30 1017 30.03 846 24.98 26.3 79.3 18 0.3 32.5
12:35 1017 30.03 846 24.98 26.2 79.2 17 -0.3 31.4
12:40 1017 30.03 846 24.98 27.1 80.8 16 -0.8 30.6
12:45 1017 30.03 846 24.98 26.8 80.2 15 -1.9 28.7
12:50 1017 30.03 846 24.98 27 80.5 14 -2.8 26.9
12:55 1017 30.03 846 24.98 27.3 81.1 14 -2.4 27.6
13:00 1016 30 846 24.98 26.6 79.9 15 -1.7 28.9
13:05 1016 30 846 24.98 27 80.5 16 -0.8 30.6
13:10 1016 30 846 24.98 26.9 80.3 15 -1.7 29
13:15 1016 30 846 24.98 26.9 80.5 14 -2.2 28
13:20 1016 30 845 24.95 27 80.6 15 -1.4 29.5
13:25 1016 30 845 24.95 26.5 79.8 16 -0.7 30.8
13:30 1016 30 845 24.95 26.7 80.1 16 -0.5 31.1
13:35 1016 30 845 24.95 26.4 79.4 18 0 32.1
13:40 1016 30 845 24.95 27 80.7 15 -1.2 29.9
13:45 1016 30 845 24.95 27.7 81.8 15 -1.1 30
13:50 1016 30 845 24.95 27.4 81.3 15 -1.7 29
13:55 1016 30 845 24.95 27.3 81.1 15 -1.1 30
14:00 1016 30 845 24.95 27.6 81.6 15 -1.2 29.9
14:05 1016 30 845 24.95 26.9 80.4 15 -1.4 29.4
14:10 1016 30 845 24.95 27.3 81.2 15 -1.4 29.5
14:15 1016 30 845 24.95 27.4 81.2 15 -1.4 29.5
14:20 1015 29.97 845 24.95 27.6 81.7 16 -0.6 30.9
14:25 1015 29.97 845 24.95 27.8 82 15 -0.7 30.7
14:30 1016 30 845 24.95 27 80.5 17 -0.3 31.5
14:35 1015 29.97 845 24.95 27.1 80.8 16 -0.8 30.6
14:40 1015 29.97 845 24.95 27.3 81.2 15 -0.8 30.5
14:45 1015 29.97 845 24.95 27.1 80.8 16 -0.9 30.3
14:50 1015 29.97 845 24.95 26.9 80.4 15 -1.2 29.8
14:55 1015 29.97 845 24.95 26.7 80.1 17 -0.3 31.4
15:00 1015 29.97 845 24.95 26.5 79.7 17 -0.2 31.7
15:05 1015 29.97 844 24.92 25.8 78.4 16 -1.9 28.6
15:10 1015 29.97 844 24.92 25.9 78.6 17 -0.7 30.7
15:15 1015 29.97 844 24.92 26.3 79.3 16 -0.9 30.4
15:20 1015 29.97 844 24.92 26.7 80 16 -1 30.3
15:25 1015 29.97 844 24.92 26.9 80.5 15 -1.4 29.5
15:30 1015 29.97 844 24.92 27.5 81.4 14 -1.7 28.9
15:35 1015 29.97 844 24.92 27.6 81.6 14 -2.2 28.1
15:40 1015 29.97 844 24.92 27 80.5 14 -2.2 28
15:45 1015 29.97 844 24.92 27.6 81.6 14 -1.8 28.8
15:50 1015 29.97 844 24.92 28 82.4 14 -1.4 29.5
15:55 1015 29.97 844 24.92 27.2 80.9 15 -1.8 28.7
16:00 1015 29.97 844 24.92 27.3 81.2 17 0.3 32.5
16:05 1015 29.97 844 24.92 27.9 82.2 14 -2.1 28.3
16:10 1015 29.97 844 24.92 28.6 83.5 13 -2 28.3
16:15 1015 29.97 844 24.92 28.3 83 14 -1.5 29.2
16:20 1015 29.97 844 24.92 27.6 81.7 15 -1.4 29.4
16:25 1015 29.97 844 24.92 27.3 81.2 15 -1.4 29.4
16:30 1015 29.97 844 24.92 27.3 81.1 15 -1.8 28.8
16:35 1015 29.97 844 24.92 27.1 80.9 15 -1.5 29.3
16:40 1015 29.97 844 24.92 26.9 80.4 15 -1.5 29.2
16:45 1015 29.97 844 24.92 27.1 80.7 15 -1.4 29.5
16:50 1015 29.97 844 24.92 26.9 80.5 14 -2.1 28.2
16:55 1015 29.97 844 24.92 27.1 80.8 15 -1.3 29.7
17:00 1015 29.97 844 24.92 26.5 79.6 15 -2.3 27.8
17:05 1015 29.97 844 24.92 26.6 79.8 15 -1.5 29.3
17:10 1015 29.97 844 24.92 26.9 80.5 15 -1.5 29.3
17:15 1015 29.97 844 24.92 28 82.4 15 -0.8 30.5
17:20 1015 29.97 844 24.92 27.9 82.2 15 -1 30.2
17:25 1015 29.97 844 24.92 27.1 80.9 16 -0.8 30.5
17:30 1015 29.97 844 24.92 27 80.5 16 -1 30.1
17:35 1015 29.97 844 24.92 26.9 80.5 15 -1.3 29.7
17:40 1015 29.97 844 24.92 26.8 80.2 17 -0.3 31.5
17:45 1015 29.97 844 24.92 26.8 80.2 17 0.4 32.6
17:50 1015 29.97 844 24.92 27 80.7 17 -0.2 31.7
17:55 1015 29.97 844 24.92 26.7 80.1 16 -1 30.3
18:00 1015 29.97 844 24.92 26.6 79.9 16 -1.2 29.8
18:05 1015 29.97 844 24.92 26.6 79.9 16 -0.6 30.9
18:10 1015 29.97 844 24.92 26.4 79.5 17 -0.1 31.7
18:15 1015 29.97 844 24.92 26.1 78.9 18 -0.2 31.7
18:20 1015 29.97 844 24.92 25.8 78.4 19 0.3 32.6
18:25 1015 29.97 844 24.92 25.6 78.2 18 0.1 32.2
18:30 1015 29.97 844 24.92 25.5 78 18 -0 31.9
18:35 1015 29.97 844 24.92 25.4 77.7 19 0.6 33
18:40 1015 29.97 844 24.92 25.1 77.2 20 0.9 33.7
18:45 1015 29.97 844 24.92 24.9 76.8 20 0.9 33.7
18:50 1015 29.97 844 24.92 24.6 76.3 20 0.7 33.3
18:55 1015 29.97 844 24.92 24.3 75.8 21 1.1 34
19:00 1015 29.97 844 24.92 24.1 75.3 22 1 33.8
19:05 1015 29.97 845 24.95 23.9 74.9 22 1.1 33.9
19:10 1015 29.97 845 24.95 23.7 74.6 22 0.9 33.5
19:15 1015 29.97 845 24.95 23.5 74.3 22 1 33.7
19:20 1015 29.97 845 24.95 23.3 73.9 22 0.6 33
19:25 1015 29.97 845 24.95 23.2 73.7 23 1 33.8
19:30 1016 30 845 24.95 23 73.3 23 0.8 33.5
19:35 1016 30 845 24.95 22.9 73.1 22 0.5 32.9
19:40 1016 30 845 24.95 22.8 73 23 0.6 33.1
19:45 1016 30 845 24.95 22.5 72.6 23 0.8 33.4
19:50 1016 30 845 24.95 22.3 72.1 23 0.5 32.9
19:55 1016 30 845 24.95 22 71.7 24 0.9 33.7
20:00 1016 30 845 24.95 21.8 71.2 24 0.8 33.4
20:05 1016 30 845 24.95 21.5 70.7 25 0.8 33.4
20:10 1016 30 845 24.95 21.4 70.5 25 0.5 33
20:15 1016 30 845 24.95 21.3 70.4 26 1.5 34.6
20:20 1016 30 845 24.95 20.9 69.6 27 1.4 34.6
20:25 1016 30 845 24.95 20.6 69.2 27 1.4 34.4
20:30 1016 30 846 24.98 20.6 69.2 27 1.3 34.4
20:35 1016 30 846 24.98 20.7 69.2 27 1.4 34.5
20:40 1016 30 846 24.98 20.7 69.2 26 0.9 33.5
20:45 1017 30.03 846 24.98 20.8 69.4 26 0.9 33.6
20:50 1017 30.03 846 24.98 20.8 69.4 26 0.9 33.6
20:55 1017 30.03 846 24.98 20.8 69.5 26 1 33.7
21:00 1017 30.03 846 24.98 20.8 69.4 27 1 33.8
21:05 1017 30.03 846 24.98 20.6 69.1 27 1.1 33.9
21:10 1017 30.03 846 24.98 20.5 68.9 30 2.5 36.5
21:15 1017 30.03 846 24.98 20.4 68.7 27 0.9 33.6
21:20 1017 30.03 846 24.98 20.5 68.9 29 2 35.7
21:25 1017 30.03 846 24.98 19.9 67.8 29 1.5 34.6
21:30 1017 30.03 846 24.98 19.9 67.7 30 1.7 35.1
21:35 1017 30.03 846 24.98 19.9 67.8 29 1.6 34.9
21:40 1017 30.03 846 24.98 20.1 68.1 26 -0 32
21:45 1017 30.03 846 24.98 20.6 69 28 1.7 35.1
21:50 1017 30.03 846 24.98 20.2 68.3 26 0.2 32.3
21:55 1017 30.03 846 24.98 20.6 69.1 25 0.2 32.4
22:00 1017 30.03 846 24.98 20.4 68.8 30 2.7 36.8
22:05 1017 30.03 846 24.98 19.3 66.7 30 1.5 34.7
22:10 1017 30.03 846 24.98 18.8 65.8 36 3.7 38.7
22:15 1017 30.03 847 25.01 17.9 64.2 35 2.5 36.5
22:20 1017 30.03 847 25.01 18.2 64.8 33 1.6 34.9
22:25 1017 30.03 846 24.98 18.5 65.4 35 3.1 37.5
22:30 1017 30.03 846 24.98 17.8 64 39 3.8 38.9
22:35 1017 30.03 846 24.98 17.5 63.4 37 2.8 37
22:40 1017 30.03 847 25.01 17.8 64 35 2.2 36
22:45 1017 30.03 847 25.01 18 64.4 39 3.8 38.8
22:50 1018 30.06 847 25.01 17.4 63.3 39 3.5 38.4
22:55 1018 30.06 847 25.01 17.1 62.8 39 3.1 37.6
23:00 1018 30.06 847 25.01 16.9 62.5 40 3.5 38.3
23:05 1018 30.06 847 25.01 16.8 62.3 42 3.8 38.9
23:10 1018 30.06 847 25.01 16.2 61.2 45 4.3 39.7
23:15 1018 30.06 847 25.01 16.1 60.9 40 2.7 36.9
23:20 1018 30.06 847 25.01 16.7 62 38 2.5 36.4
23:25 1018 30.06 847 25.01 17 62.6 36 2.1 35.8
23:30 1018 30.06 847 25.01 17.1 62.7 35 1.4 34.5
23:35 1018 30.06 847 25.01 17.4 63.2 34 1.5 34.7
23:40 1018 30.06 847 25.01 17.4 63.3 34 1.5 34.7
23:45 1018 30.06 847 25.01 17.3 63.1 34 1.3 34.3
23:50 1018 30.06 847 25.01 17.3 63.1 33 0.9 33.6
23:55 1018 30.06 847 25.01 17.3 63.2 33 0.8 33.5
24:00 1018 30.06 847 25.01 17.3 63.1 32 0.5 32.9